createdAt,value
2022-08-28T00:15:32.550Z,97739.31
2022-08-28T00:35:35.080Z,97751.91
2022-08-28T00:55:38.856Z,97739.34
2022-08-28T01:35:54.322Z,97720.25
2022-08-28T01:55:56.978Z,97729.94
2022-08-28T02:16:00.097Z,97737.97
2022-08-28T02:36:02.849Z,97740.75
2022-08-28T02:56:05.802Z,97739.34
2022-08-28T03:16:08.378Z,97752.13
2022-08-28T03:36:11.072Z,97755.03
2022-08-28T03:56:13.760Z,97745.66
2022-08-28T04:16:17.816Z,97732.13
2022-08-28T04:36:20.966Z,97788.16
2022-08-28T04:56:23.604Z,97794.75
2022-08-28T05:16:26.378Z,97794.81
2022-08-28T05:36:32.936Z,97794.34
2022-08-28T05:56:35.721Z,97790.50
2022-08-28T06:16:39.288Z,97799.50
2022-08-28T06:36:42.926Z,97789.63
2022-08-28T06:56:46.373Z,97780.06
2022-08-28T07:16:48.995Z,97786.69
2022-08-28T07:36:54.965Z,97793.44
2022-08-28T07:56:57.503Z,97781.22
2022-08-28T08:17:00.259Z,97782.31
2022-08-28T08:37:03.087Z,97786.12
2022-08-28T08:57:06.028Z,97795.44
2022-08-28T09:17:08.658Z,97791.28
2022-08-28T09:37:13.941Z,97801.41
2022-08-28T09:57:16.586Z,97806.81
2022-08-28T10:17:19.838Z,97811.34
2022-08-28T10:37:24.664Z,97819.22
2022-08-28T10:57:27.275Z,97815.06
2022-08-28T11:17:35.258Z,97800.72
2022-08-28T11:37:37.977Z,97791.78
2022-08-28T11:57:40.688Z,97773.16
2022-08-28T12:17:45.442Z,97772.84
2022-08-28T12:37:52.029Z,97772.19
2022-08-28T12:57:55.657Z,97767.72
2022-08-28T13:17:59.286Z,97782.75
2022-08-28T13:38:01.968Z,97774.09
2022-08-28T13:58:05.127Z,97885.16
2022-08-28T14:18:07.655Z,97852.28
2022-08-28T14:38:10.534Z,97903.81
2022-08-28T14:58:13.718Z,97897.56
2022-08-28T15:18:16.480Z,97944.19
2022-08-28T15:38:21.149Z,98017.00
2022-08-28T15:58:23.877Z,97988.78
2022-08-28T16:18:26.668Z,98023.72
2022-08-28T16:38:31.305Z,97964.13
2022-08-28T16:58:33.992Z,97943.56
2022-08-28T17:18:40.084Z,97971.38
2022-08-28T17:38:51.143Z,97992.41
2022-08-28T17:58:54.898Z,97992.84
2022-08-28T18:18:59.832Z,97995.31
2022-08-28T18:39:05.836Z,97998.13
2022-08-28T18:59:11.643Z,98021.91
2022-08-28T19:19:14.207Z,98039.91
2022-08-28T19:39:16.824Z,98052.38
2022-08-28T19:59:26.919Z,98061.19
2022-08-28T20:19:30.153Z,98076.44
2022-08-28T20:39:33.126Z,98089.13
2022-08-28T20:59:39.642Z,98098.75
2022-08-28T21:19:44.262Z,98110.47
2022-08-28T21:39:51.059Z,98120.59
2022-08-28T21:59:55.703Z,98133.97
2022-08-28T22:19:58.208Z,98137.81
2022-08-28T22:40:01.170Z,98134.16
2022-08-28T23:00:05.897Z,98131.66
2022-08-28T23:20:10.013Z,98130.47
2022-08-28T23:40:12.959Z,98143.41
